sensor_id;sensor_type;location;lat;lon;timestamp;temperature;humidity
11005;DHT22;5555;59.622;16.556;2022-09-01T00:00:22;8.90;99.90
11005;DHT22;5555;59.622;16.556;2022-09-01T00:02:48;8.90;99.90
11005;DHT22;5555;59.622;16.556;2022-09-01T00:05:14;8.80;99.90
11005;DHT22;5555;59.622;16.556;2022-09-01T00:07:40;8.70;99.90
11005;DHT22;5555;59.622;16.556;2022-09-01T00:10:07;8.70;99.90
11005;DHT22;5555;59.622;16.556;2022-09-01T00:12:33;8.60;99.90
11005;DHT22;5555;59.622;16.556;2022-09-01T00:14:58;8.70;99.90
11005;DHT22;5555;59.622;16.556;2022-09-01T00:17:24;8.60;99.90
11005;DHT22;5555;59.622;16.556;2022-09-01T00:19:50;8.60;99.90
11005;DHT22;5555;59.622;16.556;2022-09-01T00:22:15;8.60;99.90
11005;DHT22;5555;59.622;16.556;2022-09-01T00:24:41;8.60;99.90
11005;DHT22;5555;59.622;16.556;2022-09-01T00:27:07;8.60;99.90
11005;DHT22;5555;59.622;16.556;2022-09-01T00:29:32;8.60;99.90
11005;DHT22;5555;59.622;16.556;2022-09-01T00:31:58;8.60;99.90
11005;DHT22;5555;59.622;16.556;2022-09-01T00:34:24;8.50;99.90
11005;DHT22;5555;59.622;16.556;2022-09-01T00:36:49;8.50;99.90
11005;DHT22;5555;59.622;16.556;2022-09-01T00:39:15;8.40;99.90
11005;DHT22;5555;59.622;16.556;2022-09-01T00:41:42;8.40;99.90
11005;DHT22;5555;59.622;16.556;2022-09-01T00:44:12;8.40;99.90
11005;DHT22;5555;59.622;16.556;2022-09-01T00:46:42;8.40;99.90
11005;DHT22;5555;59.622;16.556;2022-09-01T00:49:29;8.40;99.90
11005;DHT22;5555;59.622;16.556;2022-09-01T00:52:13;8.40;99.90
11005;DHT22;5555;59.622;16.556;2022-09-01T00:54:43;8.40;99.90
11005;DHT22;5555;59.622;16.556;2022-09-01T00:57:10;8.40;99.90
11005;DHT22;5555;59.622;16.556;2022-09-01T01:02:40;8.40;99.90
11005;DHT22;5555;59.622;16.556;2022-09-01T01:05:07;8.40;99.90
11005;DHT22;5555;59.622;16.556;2022-09-01T01:07:33;8.40;99.90
11005;DHT22;5555;59.622;16.556;2022-09-01T01:10:06;8.40;99.90
11005;DHT22;5555;59.622;16.556;2022-09-01T01:12:33;8.40;99.90
11005;DHT22;5555;59.622;16.556;2022-09-01T01:15:03;8.40;99.90
11005;DHT22;5555;59.622;16.556;2022-09-01T01:17:31;8.30;99.90
11005;DHT22;5555;59.622;16.556;2022-09-01T01:19:57;8.40;99.90
11005;DHT22;5555;59.622;16.556;2022-09-01T01:23:05;8.40;99.90
11005;DHT22;5555;59.622;16.556;2022-09-01T01:25:37;8.40;99.90
11005;DHT22;5555;59.622;16.556;2022-09-01T01:28:06;8.30;99.90
11005;DHT22;5555;59.622;16.556;2022-09-01T01:30:32;8.20;99.90
11005;DHT22;5555;59.622;16.556;2022-09-01T01:32:59;8.10;99.90
11005;DHT22;5555;59.622;16.556;2022-09-01T01:35:26;8.10;99.90
11005;DHT22;5555;59.622;16.556;2022-09-01T01:37:52;8.10;99.90
11005;DHT22;5555;59.622;16.556;2022-09-01T01:40:20;8.00;99.90
11005;DHT22;5555;59.622;16.556;2022-09-01T01:42:50;7.90;99.90
11005;DHT22;5555;59.622;16.556;2022-09-01T01:45:18;7.90;99.90
11005;DHT22;5555;59.622;16.556;2022-09-01T01:47:46;7.80;99.90
11005;DHT22;5555;59.622;16.556;2022-09-01T01:50:15;7.80;99.90
11005;DHT22;5555;59.622;16.556;2022-09-01T01:52:40;7.90;99.90
11005;DHT22;5555;59.622;16.556;2022-09-01T01:55:08;7.90;99.90
11005;DHT22;5555;59.622;16.556;2022-09-01T01:57:39;7.90;99.90
11005;DHT22;5555;59.622;16.556;2022-09-01T02:00:14;7.90;99.90
11005;DHT22;5555;59.622;16.556;2022-09-01T02:02:45;7.90;99.90
11005;DHT22;5555;59.622;16.556;2022-09-01T02:05:29;7.90;99.90
11005;DHT22;5555;59.622;16.556;2022-09-01T02:08:02;8.00;99.90
11005;DHT22;5555;59.622;16.556;2022-09-01T02:10:35;8.00;99.90
11005;DHT22;5555;59.622;16.556;2022-09-01T02:13:04;8.00;99.90
11005;DHT22;5555;59.622;16.556;2022-09-01T02:15:34;8.00;99.90
11005;DHT22;5555;59.622;16.556;2022-09-01T02:18:02;8.00;99.90
11005;DHT22;5555;59.622;16.556;2022-09-01T02:20:28;8.00;99.90
11005;DHT22;5555;59.622;16.556;2022-09-01T02:22:57;7.90;99.90
11005;DHT22;5555;59.622;16.556;2022-09-01T02:25:25;7.90;99.90
11005;DHT22;5555;59.622;16.556;2022-09-01T02:27:51;7.90;99.90
11005;DHT22;5555;59.622;16.556;2022-09-01T02:30:20;8.00;99.90
11005;DHT22;5555;59.622;16.556;2022-09-01T02:32:50;8.00;99.90
11005;DHT22;5555;59.622;16.556;2022-09-01T02:35:16;8.00;99.90
11005;DHT22;5555;59.622;16.556;2022-09-01T02:37:43;8.00;99.90
11005;DHT22;5555;59.622;16.556;2022-09-01T02:40:13;8.00;99.90
11005;DHT22;5555;59.622;16.556;2022-09-01T02:42:40;8.00;99.90
11005;DHT22;5555;59.622;16.556;2022-09-01T02:45:08;7.90;99.90
11005;DHT22;5555;59.622;16.556;2022-09-01T02:47:40;7.90;99.90
11005;DHT22;5555;59.622;16.556;2022-09-01T02:50:09;7.90;99.90
11005;DHT22;5555;59.622;16.556;2022-09-01T02:52:38;7.90;99.90
11005;DHT22;5555;59.622;16.556;2022-09-01T02:55:06;7.90;99.90
11005;DHT22;5555;59.622;16.556;2022-09-01T02:57:32;7.90;99.90
11005;DHT22;5555;59.622;16.556;2022-09-01T02:59:59;7.90;99.90
11005;DHT22;5555;59.622;16.556;2022-09-01T03:02:25;7.90;99.90
11005;DHT22;5555;59.622;16.556;2022-09-01T03:04:53;7.90;99.90
11005;DHT22;5555;59.622;16.556;2022-09-01T03:07:20;7.90;99.90
11005;DHT22;5555;59.622;16.556;2022-09-01T03:09:50;7.90;99.90
11005;DHT22;5555;59.622;16.556;2022-09-01T03:12:17;7.90;99.90
11005;DHT22;5555;59.622;16.556;2022-09-01T03:14:44;7.90;99.90
11005;DHT22;5555;59.622;16.556;2022-09-01T03:17:10;7.90;99.90
11005;DHT22;5555;59.622;16.556;2022-09-01T03:19:36;7.90;99.90
11005;DHT22;5555;59.622;16.556;2022-09-01T03:22:06;7.90;99.90
11005;DHT22;5555;59.622;16.556;2022-09-01T03:24:32;8.00;99.90
11005;DHT22;5555;59.622;16.556;2022-09-01T03:26:57;8.00;99.90
11005;DHT22;5555;59.622;16.556;2022-09-01T03:29:23;8.00;99.90
11005;DHT22;5555;59.622;16.556;2022-09-01T03:31:49;7.90;99.90
11005;DHT22;5555;59.622;16.556;2022-09-01T03:34:14;7.90;99.90
11005;DHT22;5555;59.622;16.556;2022-09-01T03:36:41;7.90;99.90
11005;DHT22;5555;59.622;16.556;2022-09-01T03:39:15;7.90;99.90
11005;DHT22;5555;59.622;16.556;2022-09-01T03:41:41;7.90;99.90
11005;DHT22;5555;59.622;16.556;2022-09-01T03:44:07;7.90;99.90
11005;DHT22;5555;59.622;16.556;2022-09-01T03:46:34;7.90;99.90
11005;DHT22;5555;59.622;16.556;2022-09-01T03:49:02;7.80;99.90
11005;DHT22;5555;59.622;16.556;2022-09-01T03:51:30;7.80;99.90
11005;DHT22;5555;59.622;16.556;2022-09-01T03:53:57;7.80;99.90
11005;DHT22;5555;59.622;16.556;2022-09-01T03:56:27;7.70;99.90
11005;DHT22;5555;59.622;16.556;2022-09-01T03:58:58;7.70;99.90
11005;DHT22;5555;59.622;16.556;2022-09-01T04:01:25;7.70;99.90
11005;DHT22;5555;59.622;16.556;2022-09-01T04:03:51;7.80;99.90
11005;DHT22;5555;59.622;16.556;2022-09-01T04:06:17;7.70;99.90
11005;DHT22;5555;59.622;16.556;2022-09-01T04:08:44;7.70;99.90
11005;DHT22;5555;59.622;16.556;2022-09-01T04:11:18;7.70;99.90
11005;DHT22;5555;59.622;16.556;2022-09-01T04:13:48;7.70;99.90
11005;DHT22;5555;59.622;16.556;2022-09-01T04:16:24;7.70;99.90
11005;DHT22;5555;59.622;16.556;2022-09-01T04:19:10;7.60;99.90
11005;DHT22;5555;59.622;16.556;2022-09-01T04:21:49;7.70;99.90
11005;DHT22;5555;59.622;16.556;2022-09-01T04:24:15;7.70;99.90
11005;DHT22;5555;59.622;16.556;2022-09-01T04:26:43;7.80;99.90
11005;DHT22;5555;59.622;16.556;2022-09-01T04:29:11;7.80;99.90
11005;DHT22;5555;59.622;16.556;2022-09-01T04:31:37;7.80;99.90
11005;DHT22;5555;59.622;16.556;2022-09-01T04:34:05;7.80;99.90
11005;DHT22;5555;59.622;16.556;2022-09-01T04:36:39;7.90;99.90
11005;DHT22;5555;59.622;16.556;2022-09-01T04:39:07;7.90;99.90
11005;DHT22;5555;59.622;16.556;2022-09-01T04:41:41;8.00;99.90
11005;DHT22;5555;59.622;16.556;2022-09-01T04:44:07;8.00;99.90
11005;DHT22;5555;59.622;16.556;2022-09-01T04:46:41;8.00;99.90
11005;DHT22;5555;59.622;16.556;2022-09-01T04:49:09;8.00;99.90
11005;DHT22;5555;59.622;16.556;2022-09-01T04:51:43;8.00;99.90
11005;DHT22;5555;59.622;16.556;2022-09-01T04:54:10;8.10;99.90
11005;DHT22;5555;59.622;16.556;2022-09-01T04:56:40;8.10;99.90
11005;DHT22;5555;59.622;16.556;2022-09-01T04:59:06;8.10;99.90
11005;DHT22;5555;59.622;16.556;2022-09-01T05:01:34;8.20;99.90
11005;DHT22;5555;59.622;16.556;2022-09-01T05:04:12;8.20;99.90
11005;DHT22;5555;59.622;16.556;2022-09-01T05:06:41;8.30;99.90
11005;DHT22;5555;59.622;16.556;2022-09-01T05:09:11;8.40;99.90
11005;DHT22;5555;59.622;16.556;2022-09-01T05:11:38;8.40;99.90
11005;DHT22;5555;59.622;16.556;2022-09-01T05:14:04;8.40;99.90
11005;DHT22;5555;59.622;16.556;2022-09-01T05:16:32;8.60;99.90
11005;DHT22;5555;59.622;16.556;2022-09-01T05:18:59;8.60;99.90
11005;DHT22;5555;59.622;16.556;2022-09-01T05:21:26;8.80;99.90
11005;DHT22;5555;59.622;16.556;2022-09-01T05:23:56;8.90;99.90
11005;DHT22;5555;59.622;16.556;2022-09-01T05:26:25;9.00;99.90
11005;DHT22;5555;59.622;16.556;2022-09-01T05:28:53;9.10;99.90
11005;DHT22;5555;59.622;16.556;2022-09-01T05:31:23;9.20;99.90
11005;DHT22;5555;59.622;16.556;2022-09-01T05:33:49;9.30;99.90
11005;DHT22;5555;59.622;16.556;2022-09-01T05:36:19;9.30;99.90
11005;DHT22;5555;59.622;16.556;2022-09-01T05:38:46;9.50;99.90
11005;DHT22;5555;59.622;16.556;2022-09-01T05:41:14;9.60;99.90
11005;DHT22;5555;59.622;16.556;2022-09-01T05:43:41;9.70;99.90
11005;DHT22;5555;59.622;16.556;2022-09-01T05:46:11;9.80;99.90
11005;DHT22;5555;59.622;16.556;2022-09-01T05:48:37;9.80;99.90
11005;DHT22;5555;59.622;16.556;2022-09-01T05:51:05;9.90;99.90
11005;DHT22;5555;59.622;16.556;2022-09-01T05:53:32;10.00;99.90
11005;DHT22;5555;59.622;16.556;2022-09-01T05:55:59;10.10;99.90
11005;DHT22;5555;59.622;16.556;2022-09-01T05:58:32;10.10;99.90
11005;DHT22;5555;59.622;16.556;2022-09-01T06:01:00;10.20;99.90
11005;DHT22;5555;59.622;16.556;2022-09-01T06:03:26;10.30;99.90
11005;DHT22;5555;59.622;16.556;2022-09-01T06:05:53;10.30;99.90
11005;DHT22;5555;59.622;16.556;2022-09-01T06:08:22;10.40;99.90
11005;DHT22;5555;59.622;16.556;2022-09-01T06:10:48;10.50;99.90
11005;DHT22;5555;59.622;16.556;2022-09-01T06:13:15;10.50;99.90
11005;DHT22;5555;59.622;16.556;2022-09-01T06:15:42;10.60;99.90
11005;DHT22;5555;59.622;16.556;2022-09-01T06:18:10;10.60;99.90
11005;DHT22;5555;59.622;16.556;2022-09-01T06:20:41;10.70;99.90
11005;DHT22;5555;59.622;16.556;2022-09-01T06:23:09;10.80;99.90
11005;DHT22;5555;59.622;16.556;2022-09-01T06:25:37;10.90;99.90
11005;DHT22;5555;59.622;16.556;2022-09-01T06:28:04;10.90;99.90
11005;DHT22;5555;59.622;16.556;2022-09-01T06:30:30;11.00;99.90
11005;DHT22;5555;59.622;16.556;2022-09-01T06:33:01;11.10;99.90
11005;DHT22;5555;59.622;16.556;2022-09-01T06:35:27;11.20;99.90
11005;DHT22;5555;59.622;16.556;2022-09-01T06:37:55;11.20;99.90
11005;DHT22;5555;59.622;16.556;2022-09-01T06:40:23;11.30;99.90
11005;DHT22;5555;59.622;16.556;2022-09-01T06:42:50;11.40;99.90
11005;DHT22;5555;59.622;16.556;2022-09-01T06:45:19;11.40;99.90
11005;DHT22;5555;59.622;16.556;2022-09-01T06:47:46;11.60;99.90
11005;DHT22;5555;59.622;16.556;2022-09-01T06:50:18;11.70;99.90
11005;DHT22;5555;59.622;16.556;2022-09-01T06:52:47;11.70;99.90
11005;DHT22;5555;59.622;16.556;2022-09-01T06:55:15;11.90;99.90
11005;DHT22;5555;59.622;16.556;2022-09-01T06:57:42;11.90;99.90
11005;DHT22;5555;59.622;16.556;2022-09-01T07:00:14;11.90;99.90
11005;DHT22;5555;59.622;16.556;2022-09-01T07:02:46;11.90;99.90
11005;DHT22;5555;59.622;16.556;2022-09-01T07:05:14;12.00;99.90
11005;DHT22;5555;59.622;16.556;2022-09-01T07:07:50;12.20;99.90
11005;DHT22;5555;59.622;16.556;2022-09-01T07:10:21;12.30;99.90
11005;DHT22;5555;59.622;16.556;2022-09-01T07:12:57;12.40;99.90
11005;DHT22;5555;59.622;16.556;2022-09-01T07:15:26;12.20;99.90
11005;DHT22;5555;59.622;16.556;2022-09-01T07:17:54;12.40;99.90
11005;DHT22;5555;59.622;16.556;2022-09-01T07:20:23;12.40;99.90
11005;DHT22;5555;59.622;16.556;2022-09-01T07:22:51;12.50;99.90
11005;DHT22;5555;59.622;16.556;2022-09-01T07:25:16;12.60;99.90
11005;DHT22;5555;59.622;16.556;2022-09-01T07:27:43;12.80;99.90
11005;DHT22;5555;59.622;16.556;2022-09-01T07:30:20;12.90;99.90
11005;DHT22;5555;59.622;16.556;2022-09-01T07:32:46;12.90;99.90
11005;DHT22;5555;59.622;16.556;2022-09-01T07:35:15;13.00;99.90
11005;DHT22;5555;59.622;16.556;2022-09-01T07:37:43;13.10;99.90
11005;DHT22;5555;59.622;16.556;2022-09-01T07:40:14;13.10;99.90
11005;DHT22;5555;59.622;16.556;2022-09-01T07:42:44;13.00;99.90
11005;DHT22;5555;59.622;16.556;2022-09-01T07:45:15;13.10;99.90
11005;DHT22;5555;59.622;16.556;2022-09-01T07:47:42;13.20;99.90
11005;DHT22;5555;59.622;16.556;2022-09-01T07:50:10;13.20;99.90
11005;DHT22;5555;59.622;16.556;2022-09-01T07:52:38;13.40;99.90
11005;DHT22;5555;59.622;16.556;2022-09-01T07:55:12;13.60;99.90
11005;DHT22;5555;59.622;16.556;2022-09-01T07:57:39;13.70;99.90
11005;DHT22;5555;59.622;16.556;2022-09-01T08:00:08;13.70;99.90
11005;DHT22;5555;59.622;16.556;2022-09-01T08:02:34;13.60;99.90
11005;DHT22;5555;59.622;16.556;2022-09-01T08:05:07;13.70;99.90
11005;DHT22;5555;59.622;16.556;2022-09-01T08:07:36;13.80;99.90
11005;DHT22;5555;59.622;16.556;2022-09-01T08:10:03;13.90;99.90
11005;DHT22;5555;59.622;16.556;2022-09-01T08:12:29;14.00;99.90
11005;DHT22;5555;59.622;16.556;2022-09-01T08:14:55;14.10;99.90
11005;DHT22;5555;59.622;16.556;2022-09-01T08:17:21;14.10;99.90
11005;DHT22;5555;59.622;16.556;2022-09-01T08:19:47;14.20;99.90
11005;DHT22;5555;59.622;16.556;2022-09-01T08:22:14;14.20;99.90
11005;DHT22;5555;59.622;16.556;2022-09-01T08:24:40;14.10;99.90
11005;DHT22;5555;59.622;16.556;2022-09-01T08:27:05;14.20;99.90
11005;DHT22;5555;59.622;16.556;2022-09-01T08:29:31;14.40;99.90
11005;DHT22;5555;59.622;16.556;2022-09-01T08:31:56;14.30;99.90
11005;DHT22;5555;59.622;16.556;2022-09-01T08:34:27;14.20;99.90
11005;DHT22;5555;59.622;16.556;2022-09-01T08:36:52;14.40;99.90
11005;DHT22;5555;59.622;16.556;2022-09-01T08:39:18;14.60;99.90
11005;DHT22;5555;59.622;16.556;2022-09-01T08:44:37;14.70;99.90
11005;DHT22;5555;59.622;16.556;2022-09-01T08:47:08;14.70;99.90
11005;DHT22;5555;59.622;16.556;2022-09-01T08:49:36;14.70;99.90
11005;DHT22;5555;59.622;16.556;2022-09-01T08:54:55;14.80;99.90
11005;DHT22;5555;59.622;16.556;2022-09-01T08:57:40;15.00;99.90
11005;DHT22;5555;59.622;16.556;2022-09-01T09:00:10;15.10;99.90
11005;DHT22;5555;59.622;16.556;2022-09-01T09:11:23;15.30;99.90
11005;DHT22;5555;59.622;16.556;2022-09-01T09:16:39;15.40;99.90
11005;DHT22;5555;59.622;16.556;2022-09-01T09:19:13;15.70;99.90
11005;DHT22;5555;59.622;16.556;2022-09-01T09:21:43;15.90;99.90
11005;DHT22;5555;59.622;16.556;2022-09-01T09:26:35;16.50;99.90
11005;DHT22;5555;59.622;16.556;2022-09-01T09:29:01;16.20;99.90
11005;DHT22;5555;59.622;16.556;2022-09-01T09:31:36;16.00;99.90
11005;DHT22;5555;59.622;16.556;2022-09-01T09:34:34;16.10;99.90
11005;DHT22;5555;59.622;16.556;2022-09-01T09:37:21;16.20;99.90
11005;DHT22;5555;59.622;16.556;2022-09-01T09:42:40;16.60;99.90
11005;DHT22;5555;59.622;16.556;2022-09-01T09:45:28;16.70;99.90
11005;DHT22;5555;59.622;16.556;2022-09-01T09:47:55;16.90;99.90
11005;DHT22;5555;59.622;16.556;2022-09-01T09:50:36;16.90;99.90
11005;DHT22;5555;59.622;16.556;2022-09-01T09:53:32;16.80;99.90
11005;DHT22;5555;59.622;16.556;2022-09-01T09:56:07;17.10;99.90
11005;DHT22;5555;59.622;16.556;2022-09-01T09:58:39;17.30;99.90
11005;DHT22;5555;59.622;16.556;2022-09-01T10:01:27;17.40;99.90
11005;DHT22;5555;59.622;16.556;2022-09-01T10:03:56;17.50;99.90
11005;DHT22;5555;59.622;16.556;2022-09-01T10:06:38;17.10;99.90
11005;DHT22;5555;59.622;16.556;2022-09-01T10:09:14;16.60;99.90
11005;DHT22;5555;59.622;16.556;2022-09-01T10:11:42;16.50;99.90
11005;DHT22;5555;59.622;16.556;2022-09-01T10:14:32;16.60;99.90
11005;DHT22;5555;59.622;16.556;2022-09-01T10:17:11;16.50;99.90
11005;DHT22;5555;59.622;16.556;2022-09-01T10:19:58;16.50;99.90
11005;DHT22;5555;59.622;16.556;2022-09-01T10:22:27;16.80;99.90
11005;DHT22;5555;59.622;16.556;2022-09-01T10:24:53;16.90;99.90
11005;DHT22;5555;59.622;16.556;2022-09-01T10:27:22;16.90;99.90
11005;DHT22;5555;59.622;16.556;2022-09-01T10:30:01;16.90;99.90
11005;DHT22;5555;59.622;16.556;2022-09-01T10:32:32;17.20;99.90
11005;DHT22;5555;59.622;16.556;2022-09-01T10:34:59;17.20;99.90
11005;DHT22;5555;59.622;16.556;2022-09-01T10:37:27;17.20;99.90
11005;DHT22;5555;59.622;16.556;2022-09-01T10:40:17;17.20;99.90
11005;DHT22;5555;59.622;16.556;2022-09-01T10:42:46;17.30;99.90
11005;DHT22;5555;59.622;16.556;2022-09-01T10:45:18;17.50;99.90
11005;DHT22;5555;59.622;16.556;2022-09-01T10:47:46;17.40;99.90
11005;DHT22;5555;59.622;16.556;2022-09-01T10:50:31;17.60;99.90
11005;DHT22;5555;59.622;16.556;2022-09-01T10:53:04;18.00;99.90
11005;DHT22;5555;59.622;16.556;2022-09-01T10:55:36;18.20;99.90
11005;DHT22;5555;59.622;16.556;2022-09-01T11:00:47;18.50;99.90
11005;DHT22;5555;59.622;16.556;2022-09-01T11:11:08;17.90;99.90
11005;DHT22;5555;59.622;16.556;2022-09-01T11:13:49;18.50;99.90
11005;DHT22;5555;59.622;16.556;2022-09-01T11:16:28;18.40;99.90
11005;DHT22;5555;59.622;16.556;2022-09-01T11:18:56;18.40;99.90
11005;DHT22;5555;59.622;16.556;2022-09-01T11:21:41;18.00;99.90
11005;DHT22;5555;59.622;16.556;2022-09-01T11:27:09;18.10;99.90
11005;DHT22;5555;59.622;16.556;2022-09-01T11:29:54;18.60;99.90
11005;DHT22;5555;59.622;16.556;2022-09-01T11:32:24;17.90;99.90
11005;DHT22;5555;59.622;16.556;2022-09-01T11:34:53;17.50;99.90
11005;DHT22;5555;59.622;16.556;2022-09-01T11:37:22;18.00;99.90
11005;DHT22;5555;59.622;16.556;2022-09-01T11:39:51;18.30;99.90
11005;DHT22;5555;59.622;16.556;2022-09-01T11:47:31;17.20;99.90
11005;DHT22;5555;59.622;16.556;2022-09-01T11:50:03;16.90;99.90
11005;DHT22;5555;59.622;16.556;2022-09-01T11:52:38;16.90;99.90
11005;DHT22;5555;59.622;16.556;2022-09-01T11:55:06;16.90;99.90
11005;DHT22;5555;59.622;16.556;2022-09-01T11:57:36;16.80;99.90
11005;DHT22;5555;59.622;16.556;2022-09-01T12:00:09;17.10;99.90
11005;DHT22;5555;59.622;16.556;2022-09-01T12:02:50;17.30;99.90
11005;DHT22;5555;59.622;16.556;2022-09-01T12:05:25;18.10;99.90
11005;DHT22;5555;59.622;16.556;2022-09-01T12:07:51;19.40;99.90
11005;DHT22;5555;59.622;16.556;2022-09-01T12:15:36;18.70;99.90
11005;DHT22;5555;59.622;16.556;2022-09-01T12:20:39;17.90;99.90
11005;DHT22;5555;59.622;16.556;2022-09-01T12:23:35;17.30;99.90
11005;DHT22;5555;59.622;16.556;2022-09-01T12:26:07;17.00;99.90
11005;DHT22;5555;59.622;16.556;2022-09-01T12:28:34;17.10;99.90
11005;DHT22;5555;59.622;16.556;2022-09-01T12:31:06;17.30;99.90
11005;DHT22;5555;59.622;16.556;2022-09-01T12:33:33;17.50;99.90
11005;DHT22;5555;59.622;16.556;2022-09-01T12:36:22;17.60;99.90
11005;DHT22;5555;59.622;16.556;2022-09-01T12:38:49;17.90;99.90
11005;DHT22;5555;59.622;16.556;2022-09-01T12:41:36;18.50;99.90
11005;DHT22;5555;59.622;16.556;2022-09-01T12:50:06;17.30;99.90
11005;DHT22;5555;59.622;16.556;2022-09-01T12:52:34;16.90;99.90
11005;DHT22;5555;59.622;16.556;2022-09-01T12:57:39;16.20;99.90
11005;DHT22;5555;59.622;16.556;2022-09-01T13:02:38;16.30;99.90
11005;DHT22;5555;59.622;16.556;2022-09-01T13:05:45;16.50;99.90
11005;DHT22;5555;59.622;16.556;2022-09-01T13:08:23;16.40;99.90
11005;DHT22;5555;59.622;16.556;2022-09-01T13:11:08;16.40;99.90
11005;DHT22;5555;59.622;16.556;2022-09-01T13:13:34;15.80;99.90
11005;DHT22;5555;59.622;16.556;2022-09-01T13:16:01;15.40;99.90
11005;DHT22;5555;59.622;16.556;2022-09-01T13:18:32;15.50;99.90
11005;DHT22;5555;59.622;16.556;2022-09-01T13:20:59;15.90;99.90
11005;DHT22;5555;59.622;16.556;2022-09-01T13:23:25;17.40;99.90
11005;DHT22;5555;59.622;16.556;2022-09-01T13:25:51;18.20;99.90
11005;DHT22;5555;59.622;16.556;2022-09-01T13:28:17;18.30;99.90
11005;DHT22;5555;59.622;16.556;2022-09-01T13:30:49;19.10;99.90
11005;DHT22;5555;59.622;16.556;2022-09-01T13:33:18;19.30;99.90
11005;DHT22;5555;59.622;16.556;2022-09-01T13:35:43;19.40;99.90
11005;DHT22;5555;59.622;16.556;2022-09-01T13:38:09;20.50;99.90
11005;DHT22;5555;59.622;16.556;2022-09-01T13:40:35;20.80;99.90
11005;DHT22;5555;59.622;16.556;2022-09-01T13:43:01;21.00;99.90
11005;DHT22;5555;59.622;16.556;2022-09-01T13:45:28;20.80;99.90
11005;DHT22;5555;59.622;16.556;2022-09-01T13:47:54;20.90;99.90
11005;DHT22;5555;59.622;16.556;2022-09-01T13:50:21;20.50;99.90
11005;DHT22;5555;59.622;16.556;2022-09-01T13:52:52;21.00;99.90
11005;DHT22;5555;59.622;16.556;2022-09-01T13:55:21;21.60;99.90
11005;DHT22;5555;59.622;16.556;2022-09-01T13:57:47;21.40;99.90
11005;DHT22;5555;59.622;16.556;2022-09-01T14:00:16;21.10;99.90
11005;DHT22;5555;59.622;16.556;2022-09-01T14:02:47;20.80;99.90
11005;DHT22;5555;59.622;16.556;2022-09-01T14:05:35;20.40;99.90
11005;DHT22;5555;59.622;16.556;2022-09-01T14:08:03;20.10;99.90
11005;DHT22;5555;59.622;16.556;2022-09-01T14:10:30;20.70;99.90
11005;DHT22;5555;59.622;16.556;2022-09-01T14:12:57;21.10;99.90
11005;DHT22;5555;59.622;16.556;2022-09-01T14:15:24;20.50;99.20
11005;DHT22;5555;59.622;16.556;2022-09-01T14:17:53;20.00;99.90
11005;DHT22;5555;59.622;16.556;2022-09-01T14:20:26;19.30;99.90
11005;DHT22;5555;59.622;16.556;2022-09-01T14:22:52;18.60;99.90
11005;DHT22;5555;59.622;16.556;2022-09-01T14:25:20;18.10;99.90
11005;DHT22;5555;59.622;16.556;2022-09-01T14:27:47;17.90;99.90
11005;DHT22;5555;59.622;16.556;2022-09-01T14:30:20;17.60;99.90
11005;DHT22;5555;59.622;16.556;2022-09-01T14:32:47;17.30;99.90
11005;DHT22;5555;59.622;16.556;2022-09-01T14:35:13;17.00;99.90
11005;DHT22;5555;59.622;16.556;2022-09-01T14:37:39;16.80;99.90
11005;DHT22;5555;59.622;16.556;2022-09-01T14:40:07;16.60;99.90
11005;DHT22;5555;59.622;16.556;2022-09-01T14:42:34;16.40;99.90
11005;DHT22;5555;59.622;16.556;2022-09-01T14:45:02;16.40;99.90
11005;DHT22;5555;59.622;16.556;2022-09-01T14:47:29;16.50;99.90
11005;DHT22;5555;59.622;16.556;2022-09-01T14:49:55;16.40;99.90
11005;DHT22;5555;59.622;16.556;2022-09-01T14:52:20;16.60;99.90
11005;DHT22;5555;59.622;16.556;2022-09-01T14:54:47;16.40;99.90
11005;DHT22;5555;59.622;16.556;2022-09-01T14:57:13;15.80;99.90
11005;DHT22;5555;59.622;16.556;2022-09-01T14:59:39;15.70;99.90
11005;DHT22;5555;59.622;16.556;2022-09-01T15:02:07;15.70;99.90
11005;DHT22;5555;59.622;16.556;2022-09-01T15:04:33;15.50;99.90
11005;DHT22;5555;59.622;16.556;2022-09-01T15:06:59;15.50;99.90
11005;DHT22;5555;59.622;16.556;2022-09-01T15:09:25;15.60;99.90
11005;DHT22;5555;59.622;16.556;2022-09-01T15:11:50;15.80;99.90
11005;DHT22;5555;59.622;16.556;2022-09-01T15:14:16;16.00;99.90
11005;DHT22;5555;59.622;16.556;2022-09-01T15:16:42;16.10;99.90
11005;DHT22;5555;59.622;16.556;2022-09-01T15:19:10;15.80;99.90
11005;DHT22;5555;59.622;16.556;2022-09-01T15:21:36;15.70;99.90
11005;DHT22;5555;59.622;16.556;2022-09-01T15:24:03;16.10;99.90
11005;DHT22;5555;59.622;16.556;2022-09-01T15:26:30;16.90;99.90
11005;DHT22;5555;59.622;16.556;2022-09-01T15:28:56;16.80;99.90
11005;DHT22;5555;59.622;16.556;2022-09-01T15:31:22;16.10;99.90
11005;DHT22;5555;59.622;16.556;2022-09-01T15:33:49;15.80;99.90
11005;DHT22;5555;59.622;16.556;2022-09-01T15:36:21;15.50;99.90
11005;DHT22;5555;59.622;16.556;2022-09-01T15:38:47;15.20;99.90
11005;DHT22;5555;59.622;16.556;2022-09-01T15:41:22;15.30;99.90
11005;DHT22;5555;59.622;16.556;2022-09-01T15:43:48;15.00;99.90
11005;DHT22;5555;59.622;16.556;2022-09-01T15:46:15;14.80;99.90
11005;DHT22;5555;59.622;16.556;2022-09-01T15:48:41;15.00;99.90
11005;DHT22;5555;59.622;16.556;2022-09-01T15:53:47;15.10;99.90
11005;DHT22;5555;59.622;16.556;2022-09-01T15:56:13;15.00;99.90
11005;DHT22;5555;59.622;16.556;2022-09-01T15:58:38;15.40;99.90
11005;DHT22;5555;59.622;16.556;2022-09-01T16:01:04;15.60;99.90
11005;DHT22;5555;59.622;16.556;2022-09-01T16:03:30;16.00;99.90
11005;DHT22;5555;59.622;16.556;2022-09-01T16:05:59;16.30;99.90
11005;DHT22;5555;59.622;16.556;2022-09-01T16:08:25;16.50;99.90
11005;DHT22;5555;59.622;16.556;2022-09-01T16:10:50;16.90;99.90
11005;DHT22;5555;59.622;16.556;2022-09-01T16:13:16;16.60;99.90
11005;DHT22;5555;59.622;16.556;2022-09-01T16:16:31;16.70;99.90
11005;DHT22;5555;59.622;16.556;2022-09-01T16:19:06;16.60;99.90
11005;DHT22;5555;59.622;16.556;2022-09-01T16:24:24;15.90;99.90
11005;DHT22;5555;59.622;16.556;2022-09-01T16:26:50;15.70;99.90
11005;DHT22;5555;59.622;16.556;2022-09-01T16:29:30;15.30;99.90
11005;DHT22;5555;59.622;16.556;2022-09-01T16:31:57;15.30;99.90
11005;DHT22;5555;59.622;16.556;2022-09-01T16:34:22;14.90;99.90
11005;DHT22;5555;59.622;16.556;2022-09-01T16:39:32;14.70;99.90
11005;DHT22;5555;59.622;16.556;2022-09-01T16:42:04;14.60;99.90
11005;DHT22;5555;59.622;16.556;2022-09-01T16:50:09;15.40;99.90
11005;DHT22;5555;59.622;16.556;2022-09-01T17:00:21;15.30;99.90
11005;DHT22;5555;59.622;16.556;2022-09-01T17:08:32;14.60;99.90
11005;DHT22;5555;59.622;16.556;2022-09-01T17:13:39;14.10;99.90
11005;DHT22;5555;59.622;16.556;2022-09-01T17:16:13;13.90;99.90
11005;DHT22;5555;59.622;16.556;2022-09-01T17:18:41;13.60;99.90
11005;DHT22;5555;59.622;16.556;2022-09-01T17:21:20;13.50;99.90
11005;DHT22;5555;59.622;16.556;2022-09-01T17:24:10;13.50;99.90
11005;DHT22;5555;59.622;16.556;2022-09-01T17:26:40;13.40;99.90